LPMA

Details ICAO LPMA (FNC)
Name Madeira/Funchal - Cristiano Ronaldo
Region Portugal
Timezone Atlantic/Madeira (UTC+1.0)
Plans Departing 1868
Arriving 3061
Stats Elevation 189 ft / 58 m (AMSL)
Location 32.697900° -16.774400°
Runways 1
Magnetic Variation 4.793° W
Sunrise 2019-06-25 06:01:51 UTC / 2019-06-25 07:01:51 Local
Sunset 2019-06-25 20:19:52 UTC / 2019-06-25 21:19:52 Local
Advertisement - Login to hide

Runways

ID Width Length Bearing (true/mag) Surface Threshold Overrun Markings Lighting
05 148 ft / 45 m 9,133 ft / 2,784 m 44.60° / 49.39° ASPHALT 482 ft / 147 m 0 ft / 0 m PREC-APP CENTERLINE EDGE THRESHOLD TDZ REIL-OMNI
23 148 ft / 45 m 9,133 ft / 2,784 m 224.61° / 229.40° ASPHALT 482 ft / 147 m 0 ft / 0 m PREC-APP CENTERLINE EDGE THRESHOLD TDZ REIL-OMNI

Map

Weather


0- 5 10 15 20 25 30 35+ Temperature / °C

Clouds and Precipitation
Forecast for 2019-06-12 12:00 UTC. Updated 13 days ago

Ground ~20,000 ft ~40,000 ft Winds

METAR

LPMA 250930Z 36018KT 330V030 9999 SCT014 22/14 Q1017

TAF

TAF LPMA 250500Z 2506/2606 36015KT 9999 SCT013 SCT030 TEMPO 2506/2509 8000 -RADZ SCT008 BKN013 PROB30 TEMPO 2506/2512 36017G27KT BECMG 2509/2512 SCT015 BECMG 2522/2601 VRB05KT

Frequencies

Approach 119.20 MHz
Tower 118.35 MHz
Recorded 124.40 MHz ATIS
Approach 119.60 MHz
Warning: Do not use this data for real-world aviation or navigation. No guarantee of current accuracy is given.